Hundvaag 1 weather for Nov 2006
Month no. 233
Obs.
Da.
Temp. Dew Point Precip. Wind
Speed
Wind gusts Cloud cover Press. Humidity Wind dir. Sunny OPT
01.11.2006 2,5   4,0 8,0   10 1011,7 46,0 135,0 1 75,0 %
02.11.2006 3,0   0,2 0,0   6 1024,6 75,0   1 72,5 %
03.11.2006 4,9   0,0 3,2   1 1027,3 71,0 225,0   60,0 %
04.11.2006 8,8   3,0 0,0   1 1020,2 85,0   1 62,5 %
05.11.2006 10,9   11,0 25,7   1 1011,4 91,0 0,0   42,5 %
06.11.2006 10,7   24,0 16,1   0 1010,4 92,0 315,0   35,0 %
07.11.2006 11,1   1,0 14,5   2 1009,4 80,0 270,0   62,5 %
08.11.2006 6,8   4,3 1,6   1 1008,7 92,0 180,0   60,0 %
09.11.2006 4,6   6,2 3,2   1 1008,7 89,0 292,5   55,0 %
10.11.2006 3,1   6,5 3,2   2 1028,7 79,0 270,0   57,5 %
11.11.2006 6,2   17,0 1,6   8 999,9 80,0 315,0 1 67,5 %
12.11.2006 5,5   8,0 12,9   8 996,2 81,0 0,0 1 67,5 %
13.11.2006 5,8   6,7 33,8   1 987,7 86,0 202,5   35,0 %
14.11.2006 7,8   13,7 16,1   1 988,7 84,0 315,0 1 45,0 %
15.11.2006 8,2   3,4 16,1   4 997,9 75,0 292,5 1 60,0 %
16.11.2006 11,0   14,7 16,1   0 991,1 89,0 202,5   45,0 %
17.11.2006 6,8   3,5 12,9   4 998,5 84,0 247,5 1 60,0 %
18.11.2006 6,9   18,5 12,9   5 997,9 85,0 157,5 1 50,0 %
19.11.2006 5,4   3,0 3,2   1 1008,0 85,0 180,0   60,0 %
20.11.2006 7,6   12,0 38,6   0 993,1 83,0 157,5   27,5 %
21.11.2006 6,9   22,0 16,1   2 986,0 78,0 135,0 1 37,5 %
22.11.2006 6,6   6,0 6,4   3 984,0 78,0 90,0 1 60,0 %
23.11.2006 6,2   7,5 9,7   2 986,3 81,0 90,0   55,0 %
24.11.2006 8,5   3,0 20,9   1 984,0 80,0 112,5   50,0 %
25.11.2006 10,9   0,0 9,7   0 990,4 73,0 67,5   60,0 %
26.11.2006 8,2   20,0 27,4   1 995,1 86,0 157,5   32,5 %
27.11.2006 7,4   3,5 9,7   2 1014,1 87,0 135,0 1 57,5 %
28.11.2006 10,3   0,4 12,9   0 1012,1 87,0 112,5   57,5 %
29.11.2006 8,9   6,0 12,9   1 1013,8 88,0 90,0 1 52,5 %
30.11.2006 9,9   0,7 12,9   0 1020,9 90,0 135,0   55,0 %
                       
Avrg/Sum 7,4   229,8 12,6   2,3 1003,6 82,0 174,4 13 53,9 %